createdAt,value
2018-07-28T00:02:07.907Z,99.90
2018-07-28T00:04:38.793Z,99.90
2018-07-28T00:07:10.051Z,99.90
2018-07-28T00:09:41.511Z,99.90
2018-07-28T00:12:12.704Z,99.90
2018-07-28T00:14:43.514Z,99.90
2018-07-28T00:17:14.408Z,99.90
2018-07-28T00:22:15.016Z,99.90
2018-07-28T00:24:45.730Z,99.90
2018-07-28T00:27:16.653Z,99.90
2018-07-28T00:29:47.857Z,99.90
2018-07-28T00:32:18.567Z,99.90
2018-07-28T00:34:49.418Z,99.90
2018-07-28T00:37:20.372Z,99.90
2018-07-28T00:39:51.155Z,99.90
2018-07-28T00:42:21.956Z,99.90
2018-07-28T00:44:52.691Z,99.90
2018-07-28T00:47:23.540Z,99.90
2018-07-28T00:49:54.808Z,99.90
2018-07-28T00:52:25.635Z,99.90
2018-07-28T00:54:56.379Z,99.90
2018-07-28T00:57:27.024Z,99.90
2018-07-28T00:59:58.201Z,99.90
2018-07-28T01:02:29.007Z,99.90
2018-07-28T01:04:59.734Z,99.90
2018-07-28T01:07:31.036Z,99.90
2018-07-28T01:10:02.071Z,99.90
2018-07-28T01:12:32.933Z,99.90
2018-07-28T01:15:03.618Z,99.90
2018-07-28T01:17:34.315Z,99.90
2018-07-28T01:20:05.890Z,99.90
2018-07-28T01:22:38.175Z,99.90
2018-07-28T01:25:10.467Z,99.90
2018-07-28T01:27:41.788Z,99.90
2018-07-28T01:30:15.002Z,99.90
2018-07-28T01:32:45.791Z,99.90
2018-07-28T01:35:16.521Z,99.90
2018-07-28T01:37:47.252Z,99.90
2018-07-28T01:40:18.005Z,99.90
2018-07-28T01:42:49.133Z,99.90
2018-07-28T01:45:20.146Z,99.90
2018-07-28T01:47:50.841Z,99.90
2018-07-28T01:50:21.649Z,99.90
2018-07-28T01:52:52.792Z,99.90
2018-07-28T01:55:23.570Z,99.90
2018-07-28T01:57:54.381Z,99.90
2018-07-28T02:00:25.021Z,99.90
2018-07-28T02:02:55.750Z,99.90
2018-07-28T02:05:26.552Z,99.90
2018-07-28T02:07:57.351Z,99.90
2018-07-28T02:10:28.225Z,99.90
2018-07-28T02:12:58.875Z,99.90
2018-07-28T02:15:29.608Z,99.90
2018-07-28T02:18:00.388Z,99.90
2018-07-28T02:20:31.192Z,99.90
2018-07-28T02:23:01.918Z,99.90
2018-07-28T02:25:32.588Z,99.90
2018-07-28T02:28:03.311Z,99.90
2018-07-28T02:30:34.077Z,99.90
2018-07-28T02:33:11.626Z,99.90
2018-07-28T02:35:43.308Z,99.90
2018-07-28T02:38:14.015Z,99.90
2018-07-28T02:40:44.753Z,99.90
2018-07-28T02:43:15.940Z,99.90
2018-07-28T02:45:47.159Z,99.90
2018-07-28T02:48:18.523Z,99.90
2018-07-28T02:50:49.887Z,99.90
2018-07-28T02:53:20.763Z,99.90
2018-07-28T02:55:51.779Z,99.90
2018-07-28T02:58:23.268Z,99.90
2018-07-28T03:00:54.114Z,99.90
2018-07-28T03:03:25.016Z,99.90
2018-07-28T03:05:56.064Z,99.90
2018-07-28T03:08:27.150Z,99.90
2018-07-28T03:10:58.170Z,99.90
2018-07-28T03:13:28.873Z,99.90
2018-07-28T03:16:00.049Z,99.90
2018-07-28T03:18:31.135Z,99.90
2018-07-28T03:21:02.086Z,99.90
2018-07-28T03:23:33.033Z,99.90
2018-07-28T03:28:34.077Z,99.90
2018-07-28T03:31:05.246Z,99.90
2018-07-28T03:36:05.945Z,99.90
2018-07-28T03:38:36.672Z,99.90
2018-07-28T03:41:11.925Z,99.90
2018-07-28T03:43:42.920Z,99.90
2018-07-28T03:46:13.991Z,99.90
2018-07-28T03:48:45.216Z,99.90
2018-07-28T03:51:15.885Z,99.90
2018-07-28T03:53:47.037Z,99.90
2018-07-28T03:56:17.658Z,99.90
2018-07-28T03:58:48.439Z,99.90
2018-07-28T04:01:19.500Z,99.90
2018-07-28T04:03:51.448Z,99.90
2018-07-28T04:06:22.158Z,99.90
2018-07-28T04:08:52.873Z,99.90
2018-07-28T04:11:23.660Z,99.90
2018-07-28T04:13:54.499Z,99.90
2018-07-28T04:16:25.157Z,99.90
2018-07-28T04:18:55.875Z,99.90
2018-07-28T04:21:26.572Z,99.90
2018-07-28T04:23:57.375Z,99.90
2018-07-28T04:26:28.137Z,99.90
2018-07-28T04:28:58.876Z,99.90
2018-07-28T04:31:29.635Z,99.90
2018-07-28T04:34:00.765Z,99.90
2018-07-28T04:36:31.560Z,99.90
2018-07-28T04:39:02.305Z,99.90
2018-07-28T04:41:33.088Z,99.90
2018-07-28T04:44:03.857Z,99.90
2018-07-28T04:46:35.044Z,99.90
2018-07-28T04:49:05.956Z,99.90
2018-07-28T04:51:37.459Z,99.90
2018-07-28T04:54:08.539Z,99.90
2018-07-28T04:56:39.382Z,99.90
2018-07-28T04:59:10.122Z,99.90
2018-07-28T05:01:41.320Z,99.90
2018-07-28T05:04:12.053Z,99.90
2018-07-28T05:06:42.830Z,99.90
2018-07-28T05:09:13.571Z,99.90
2018-07-28T05:11:44.284Z,99.90
2018-07-28T05:17:26.162Z,99.90
2018-07-28T05:19:56.954Z,99.90
2018-07-28T05:22:27.748Z,99.90
2018-07-28T05:24:58.440Z,99.90
2018-07-28T05:27:29.223Z,99.90
2018-07-28T05:29:59.956Z,99.90
2018-07-28T05:32:30.856Z,98.40
2018-07-28T05:35:01.564Z,96.90
2018-07-28T05:37:32.301Z,95.20
2018-07-28T05:40:04.022Z,93.80
2018-07-28T05:42:34.896Z,92.90
2018-07-28T05:45:06.306Z,92.10
2018-07-28T05:47:37.023Z,91.30
2018-07-28T05:50:08.858Z,90.70
2018-07-28T05:52:39.875Z,88.80
2018-07-28T05:55:11.170Z,87.00
2018-07-28T05:57:42.723Z,84.90
2018-07-28T06:00:36.625Z,83.10
2018-07-28T06:03:22.554Z,81.20
2018-07-28T06:05:53.365Z,78.60
2018-07-28T06:08:24.212Z,78.00
2018-07-28T06:10:55.053Z,76.40
2018-07-28T06:13:25.952Z,76.10
2018-07-28T06:15:56.612Z,74.40
2018-07-28T06:18:28.151Z,73.20
2018-07-28T06:21:20.575Z,72.80
2018-07-28T06:23:51.791Z,72.60
2018-07-28T06:26:36.261Z,72.10
2018-07-28T06:29:08.425Z,72.20
2018-07-28T06:31:53.908Z,72.50
2018-07-28T06:34:24.497Z,73.00
2018-07-28T06:36:55.706Z,72.80
2018-07-28T06:39:26.430Z,73.50
2018-07-28T06:41:59.397Z,72.30
2018-07-28T06:44:30.266Z,71.90
2018-07-28T06:47:01.222Z,71.60
2018-07-28T06:49:34.603Z,71.00
2018-07-28T06:52:06.447Z,71.20
2018-07-28T06:54:37.302Z,71.00
2018-07-28T07:00:07.938Z,69.70
2018-07-28T07:02:38.868Z,69.00
2018-07-28T07:05:09.873Z,68.30
2018-07-28T07:07:40.577Z,67.90
2018-07-28T07:10:11.339Z,67.90
2018-07-28T07:12:42.094Z,67.70
2018-07-28T07:15:18.505Z,67.60
2018-07-28T07:17:49.124Z,67.10
2018-07-28T07:20:19.893Z,66.20
2018-07-28T07:22:51.108Z,65.80
2018-07-28T07:25:22.155Z,66.10
2018-07-28T07:27:52.871Z,65.90
2018-07-28T07:32:54.319Z,65.40
2018-07-28T07:35:25.451Z,65.70
2018-07-28T07:37:56.147Z,64.50
2018-07-28T07:40:35.183Z,63.80
2018-07-28T07:43:06.083Z,63.30
2018-07-28T07:45:36.822Z,63.10
2018-07-28T07:48:07.634Z,63.60
2018-07-28T07:50:43.929Z,63.60
2018-07-28T07:53:15.152Z,63.10
2018-07-28T07:55:46.004Z,62.70
2018-07-28T07:58:16.942Z,62.10
2018-07-28T08:00:47.607Z,62.00
2018-07-28T08:03:18.562Z,61.70
2018-07-28T08:09:08.152Z,61.20
2018-07-28T08:11:38.875Z,59.30
2018-07-28T08:14:09.647Z,59.20
2018-07-28T08:16:40.261Z,59.50
2018-07-28T08:19:10.953Z,58.80
2018-07-28T08:21:41.828Z,58.40
2018-07-28T08:24:12.517Z,57.80
2018-07-28T08:26:43.218Z,57.80
2018-07-28T08:29:13.957Z,57.90
2018-07-28T08:31:44.614Z,57.60
2018-07-28T08:34:15.314Z,56.80
2018-07-28T08:36:46.081Z,56.30
2018-07-28T08:39:16.766Z,55.60
2018-07-28T08:41:47.533Z,55.40
2018-07-28T08:44:18.201Z,55.80
2018-07-28T08:46:48.895Z,53.70
2018-07-28T08:49:19.868Z,52.40
2018-07-28T08:51:50.433Z,52.00
2018-07-28T08:54:21.150Z,51.40
2018-07-28T08:59:21.629Z,50.60
2018-07-28T09:01:52.254Z,49.90
2018-07-28T09:04:22.935Z,49.50
2018-07-28T09:06:53.743Z,49.00
2018-07-28T09:09:24.397Z,48.30
2018-07-28T09:11:55.072Z,47.70
2018-07-28T09:14:25.778Z,46.90
2018-07-28T09:16:56.581Z,45.30
2018-07-28T09:19:45.478Z,44.70
2018-07-28T09:22:16.172Z,44.80
2018-07-28T09:24:46.859Z,44.90
2018-07-28T09:27:17.491Z,44.70
2018-07-28T09:29:48.287Z,44.90
2018-07-28T09:32:18.958Z,44.90
2018-07-28T09:37:19.631Z,44.80
2018-07-28T09:39:50.285Z,45.20
2018-07-28T09:42:21.353Z,45.30
2018-07-28T09:44:52.085Z,44.50
2018-07-28T09:47:23.718Z,44.50
2018-07-28T09:49:54.523Z,44.60
2018-07-28T09:52:25.268Z,44.50
2018-07-28T09:54:56.336Z,44.50
2018-07-28T09:57:27.025Z,44.70
2018-07-28T09:59:57.779Z,44.70
2018-07-28T10:02:28.486Z,44.80
2018-07-28T10:04:59.188Z,44.60
2018-07-28T10:07:29.921Z,44.50
2018-07-28T10:10:00.645Z,43.40
2018-07-28T10:12:31.381Z,43.30
2018-07-28T10:15:02.073Z,43.20
2018-07-28T10:17:32.678Z,42.50
2018-07-28T10:20:03.427Z,42.40
2018-07-28T10:22:34.060Z,42.80
2018-07-28T10:25:05.225Z,43.40
2018-07-28T10:27:35.939Z,43.50
2018-07-28T10:30:08.478Z,41.70
2018-07-28T10:32:40.054Z,44.60
2018-07-28T10:35:12.252Z,48.10
2018-07-28T10:37:42.890Z,50.60
2018-07-28T10:40:13.549Z,52.00
2018-07-28T10:42:44.317Z,57.50
2018-07-28T10:45:14.970Z,70.20
2018-07-28T10:47:45.684Z,77.60
2018-07-28T10:50:16.327Z,90.50
2018-07-28T10:52:46.997Z,99.90
2018-07-28T10:55:17.717Z,99.90
2018-07-28T10:57:48.480Z,86.60
2018-07-28T11:00:19.537Z,92.50
2018-07-28T11:02:50.252Z,89.70
2018-07-28T11:05:21.399Z,84.90
2018-07-28T11:07:52.175Z,89.20
2018-07-28T11:10:22.915Z,79.40
2018-07-28T11:12:53.601Z,75.10
2018-07-28T11:15:24.403Z,72.50
2018-07-28T11:17:55.130Z,74.10
2018-07-28T11:20:25.873Z,71.20
2018-07-28T11:22:56.565Z,69.30
2018-07-28T11:25:27.308Z,70.20
2018-07-28T11:27:58.068Z,64.80
2018-07-28T11:30:28.773Z,64.40
2018-07-28T11:33:10.249Z,63.80
2018-07-28T11:35:51.680Z,60.70
2018-07-28T11:38:33.244Z,61.40
2018-07-28T11:41:14.834Z,56.40
2018-07-28T11:43:56.252Z,54.70
2018-07-28T11:46:28.150Z,53.30
2018-07-28T11:48:58.857Z,51.40
2018-07-28T11:51:29.520Z,49.30
2018-07-28T11:54:00.235Z,49.20
2018-07-28T11:56:30.921Z,47.50
2018-07-28T11:59:01.583Z,46.10
2018-07-28T12:01:32.302Z,45.80
2018-07-28T12:04:02.905Z,44.90
2018-07-28T12:06:33.543Z,44.20
2018-07-28T12:09:04.388Z,43.20
2018-07-28T12:11:35.036Z,42.60
2018-07-28T12:14:05.704Z,42.20
2018-07-28T12:16:36.391Z,41.80
2018-07-28T12:19:07.092Z,42.80
2018-07-28T12:21:37.713Z,42.00
2018-07-28T12:24:08.387Z,42.50
2018-07-28T12:26:39.051Z,41.80
2018-07-28T12:29:09.753Z,40.10
2018-07-28T12:31:40.457Z,40.10
2018-07-28T12:34:11.200Z,40.60
2018-07-28T12:36:41.913Z,40.00
2018-07-28T12:39:12.619Z,39.80
2018-07-28T12:41:43.319Z,39.80
2018-07-28T12:44:13.985Z,39.60
2018-07-28T12:46:44.657Z,39.40
2018-07-28T12:49:15.286Z,38.80
2018-07-28T12:51:45.996Z,38.80
2018-07-28T12:54:16.708Z,39.30
2018-07-28T12:56:47.430Z,39.70
2018-07-28T12:59:18.115Z,39.20
2018-07-28T13:01:48.738Z,39.60
2018-07-28T13:04:19.505Z,39.70
2018-07-28T13:06:50.161Z,39.50
2018-07-28T13:09:20.764Z,39.50
2018-07-28T13:11:51.493Z,39.80
2018-07-28T13:14:22.134Z,39.40
2018-07-28T13:16:53.153Z,39.40
2018-07-28T13:19:23.782Z,39.70
2018-07-28T13:21:54.522Z,39.90
2018-07-28T13:24:25.161Z,39.20
2018-07-28T13:26:55.812Z,39.10
2018-07-28T13:29:27.082Z,38.80
2018-07-28T13:31:57.882Z,38.90
2018-07-28T13:34:29.134Z,36.90
2018-07-28T13:36:59.773Z,37.10
2018-07-28T13:39:30.475Z,37.00
2018-07-28T13:42:01.242Z,35.80
2018-07-28T13:44:31.931Z,35.90
2018-07-28T13:47:02.669Z,35.20
2018-07-28T13:49:33.401Z,35.20
2018-07-28T13:52:04.013Z,34.90
2018-07-28T13:54:34.564Z,34.10
2018-07-28T13:57:05.433Z,34.20
2018-07-28T13:59:36.028Z,33.40
2018-07-28T14:02:06.675Z,33.90
2018-07-28T14:04:37.348Z,33.80
2018-07-28T14:07:08.001Z,33.00
2018-07-28T14:09:38.727Z,33.00
2018-07-28T14:12:09.914Z,33.70
2018-07-28T14:14:40.575Z,33.50
2018-07-28T14:17:11.217Z,34.00
2018-07-28T14:19:41.896Z,34.00
2018-07-28T14:22:12.597Z,33.90
2018-07-28T14:24:43.194Z,34.00
2018-07-28T14:27:13.831Z,34.40
2018-07-28T14:29:44.550Z,33.60
2018-07-28T14:32:15.249Z,34.20
2018-07-28T14:34:46.054Z,34.60
2018-07-28T14:37:16.731Z,34.80
2018-07-28T14:39:47.432Z,34.90
2018-07-28T14:42:18.170Z,34.60
2018-07-28T14:44:48.804Z,34.60
2018-07-28T14:47:19.466Z,34.90
2018-07-28T14:49:50.242Z,35.00
2018-07-28T14:52:20.914Z,34.60
2018-07-28T14:54:51.585Z,35.20
2018-07-28T14:57:22.366Z,35.00
2018-07-28T14:59:53.048Z,35.90
2018-07-28T15:02:23.803Z,35.80
2018-07-28T15:04:54.488Z,36.00
2018-07-28T15:07:25.262Z,36.00
2018-07-28T15:09:55.891Z,36.00
2018-07-28T15:12:26.550Z,35.10
2018-07-28T15:14:57.242Z,34.90
2018-07-28T15:17:27.894Z,35.00
2018-07-28T15:19:58.505Z,35.30
2018-07-28T15:22:29.189Z,35.30
2018-07-28T15:24:59.838Z,35.30
2018-07-28T15:27:31.363Z,35.70
2018-07-28T15:30:02.465Z,36.00
2018-07-28T15:32:33.167Z,36.90
2018-07-28T15:35:03.985Z,36.30
2018-07-28T15:37:34.602Z,37.00
2018-07-28T15:40:05.314Z,37.10
2018-07-28T15:42:36.125Z,37.40
2018-07-28T15:45:06.835Z,37.50
2018-07-28T15:47:37.513Z,37.70
2018-07-28T15:50:08.183Z,37.50
2018-07-28T15:52:38.861Z,37.70
2018-07-28T15:55:09.567Z,38.50
2018-07-28T15:57:40.282Z,38.70
2018-07-28T16:00:11.020Z,38.70
2018-07-28T16:02:41.699Z,39.00
2018-07-28T16:05:12.415Z,39.00
2018-07-28T16:07:43.090Z,39.30
2018-07-28T16:10:13.744Z,39.70
2018-07-28T16:12:44.458Z,40.10
2018-07-28T16:15:15.124Z,40.30
2018-07-28T16:17:45.751Z,40.60
2018-07-28T16:20:16.414Z,40.90
2018-07-28T16:22:47.136Z,41.20
2018-07-28T16:25:17.802Z,41.50
2018-07-28T16:27:48.586Z,41.40
2018-07-28T16:30:19.257Z,41.10
2018-07-28T16:32:49.968Z,40.80
2018-07-28T16:35:20.794Z,41.00
2018-07-28T16:37:51.450Z,41.40
2018-07-28T16:40:22.935Z,41.50
2018-07-28T16:42:53.628Z,40.90
2018-07-28T16:45:24.383Z,41.20
2018-07-28T16:47:55.091Z,41.30
2018-07-28T16:50:25.750Z,41.50
2018-07-28T16:55:26.338Z,41.20
2018-07-28T16:57:56.978Z,42.80
2018-07-28T17:00:27.773Z,44.10
2018-07-28T17:02:58.466Z,45.10
2018-07-28T17:05:29.115Z,46.40
2018-07-28T17:07:59.795Z,47.00
2018-07-28T17:10:30.524Z,48.10
2018-07-28T17:13:01.239Z,49.30
2018-07-28T17:15:31.925Z,49.30
2018-07-28T17:18:02.654Z,49.60
2018-07-28T17:20:33.581Z,49.80
2018-07-28T17:23:04.345Z,50.00
2018-07-28T17:25:35.148Z,50.00
2018-07-28T17:28:06.287Z,49.90
2018-07-28T17:30:36.956Z,49.20
2018-07-28T17:33:07.175Z,48.70
2018-07-28T17:35:37.867Z,48.30
2018-07-28T17:38:09.007Z,48.40
2018-07-28T17:40:39.856Z,48.30
2018-07-28T17:43:10.559Z,48.70
2018-07-28T17:45:41.267Z,49.00
2018-07-28T17:48:15.597Z,49.30
2018-07-28T17:50:46.275Z,49.30
2018-07-28T17:53:16.899Z,49.80
2018-07-28T17:55:47.486Z,50.50
2018-07-28T17:58:18.168Z,50.70
2018-07-28T18:00:48.766Z,50.90
2018-07-28T18:03:22.350Z,51.80
2018-07-28T18:05:53.082Z,52.50
2018-07-28T18:08:23.711Z,52.80
2018-07-28T18:10:54.395Z,53.60
2018-07-28T18:13:25.242Z,54.50
2018-07-28T18:15:55.863Z,55.30
2018-07-28T18:18:27.584Z,55.90
2018-07-28T18:20:58.269Z,56.80
2018-07-28T18:23:28.966Z,57.30
2018-07-28T18:25:59.721Z,58.00
2018-07-28T18:28:30.386Z,58.70
2018-07-28T18:31:01.083Z,59.00
2018-07-28T18:33:31.802Z,59.60
2018-07-28T18:36:02.429Z,60.10
2018-07-28T18:38:33.106Z,60.60
2018-07-28T18:41:03.784Z,61.30
2018-07-28T18:43:34.453Z,61.70
2018-07-28T18:46:05.278Z,62.00
2018-07-28T18:48:36.075Z,62.80
2018-07-28T18:51:06.851Z,62.80
2018-07-28T18:53:37.492Z,62.90
2018-07-28T18:56:08.296Z,63.70
2018-07-28T18:58:39.018Z,64.30
2018-07-28T19:01:09.745Z,64.80
2018-07-28T19:03:40.507Z,65.10
2018-07-28T19:06:11.204Z,65.30
2018-07-28T19:08:42.309Z,65.80
2018-07-28T19:11:12.992Z,66.10
2018-07-28T19:14:52.615Z,66.50
2018-07-28T19:17:26.481Z,66.40
2018-07-28T19:19:57.082Z,67.10
2018-07-28T19:22:32.649Z,67.80
2018-07-28T19:25:03.502Z,68.30
2018-07-28T19:27:34.462Z,68.30
2018-07-28T19:30:05.239Z,68.50
2018-07-28T19:32:35.943Z,68.90
2018-07-28T19:35:07.011Z,69.10
2018-07-28T19:37:37.878Z,69.10
2018-07-28T19:40:08.752Z,69.00
2018-07-28T19:42:44.763Z,69.00
2018-07-28T19:45:15.383Z,69.90
2018-07-28T19:47:46.023Z,70.20
2018-07-28T19:50:16.754Z,70.50
2018-07-28T19:52:47.435Z,70.80
2018-07-28T19:57:48.086Z,71.70
2018-07-28T20:00:18.771Z,72.00
2018-07-28T20:02:50.230Z,72.60
2018-07-28T20:05:21.111Z,73.20
2018-07-28T20:07:51.810Z,73.60
2018-07-28T20:10:22.547Z,74.00
2018-07-28T20:12:53.235Z,74.40
2018-07-28T20:15:23.883Z,74.50
2018-07-28T20:17:54.609Z,74.80
2018-07-28T20:22:55.223Z,75.60
2018-07-28T20:25:25.949Z,75.80
2018-07-28T20:27:56.875Z,76.50
2018-07-28T20:30:27.553Z,76.20
2018-07-28T20:32:58.214Z,77.50
2018-07-28T20:35:28.985Z,77.20
2018-07-28T20:37:59.643Z,77.70
2018-07-28T20:40:30.357Z,78.00
2018-07-28T20:43:01.016Z,78.20
2018-07-28T20:45:31.608Z,78.30
2018-07-28T20:48:02.331Z,79.10
2018-07-28T20:50:33.048Z,79.30
2018-07-28T20:53:03.692Z,79.70
2018-07-28T20:55:34.423Z,80.40
2018-07-28T20:58:05.109Z,81.00
2018-07-28T21:00:35.828Z,81.70
2018-07-28T21:03:06.748Z,82.60
2018-07-28T21:05:37.425Z,83.20
2018-07-28T21:08:08.188Z,83.90
2018-07-28T21:10:38.865Z,85.00
2018-07-28T21:13:09.620Z,85.40
2018-07-28T21:15:40.302Z,86.40
2018-07-28T21:18:11.781Z,87.00
2018-07-28T21:20:46.589Z,87.60
2018-07-28T21:23:18.041Z,88.20
2018-07-28T21:25:48.684Z,89.30
2018-07-28T21:28:19.348Z,90.10
2018-07-28T21:30:50.020Z,90.10
2018-07-28T21:33:21.173Z,90.60
2018-07-28T21:35:51.855Z,90.90
2018-07-28T21:38:22.525Z,91.30
2018-07-28T21:40:53.174Z,91.70
2018-07-28T21:43:23.933Z,91.90
2018-07-28T21:45:54.681Z,92.70
2018-07-28T21:48:25.340Z,92.80
2018-07-28T21:50:56.004Z,93.30
2018-07-28T21:53:26.649Z,93.70
2018-07-28T21:55:57.390Z,94.20
2018-07-28T21:58:28.104Z,94.70
2018-07-28T22:01:07.642Z,95.20
2018-07-28T22:03:38.396Z,95.70
2018-07-28T22:06:09.245Z,96.20
2018-07-28T22:08:40.069Z,96.50
2018-07-28T22:11:10.762Z,96.30
2018-07-28T22:13:41.481Z,96.40
2018-07-28T22:16:12.257Z,96.80
2018-07-28T22:18:42.908Z,96.60
2018-07-28T22:21:13.504Z,97.00
2018-07-28T22:23:44.195Z,96.90
2018-07-28T22:26:15.090Z,97.00
2018-07-28T22:28:45.737Z,97.30
2018-07-28T22:31:16.475Z,96.90
2018-07-28T22:33:47.185Z,96.80
2018-07-28T22:36:18.388Z,97.20
2018-07-28T22:38:49.050Z,96.70
2018-07-28T22:41:19.796Z,96.50
2018-07-28T22:43:50.520Z,96.60
2018-07-28T22:46:21.227Z,96.30
2018-07-28T22:48:51.935Z,96.30
2018-07-28T22:51:22.597Z,96.30
2018-07-28T22:53:53.285Z,96.20
2018-07-28T22:56:23.960Z,96.10
2018-07-28T22:58:54.723Z,96.20
2018-07-28T23:01:25.434Z,95.90
2018-07-28T23:03:56.132Z,96.10
2018-07-28T23:06:26.892Z,96.00
2018-07-28T23:08:57.605Z,96.10
2018-07-28T23:11:28.258Z,96.20
2018-07-28T23:13:58.982Z,96.00
2018-07-28T23:18:59.628Z,96.00
2018-07-28T23:21:30.275Z,96.10
2018-07-28T23:24:00.970Z,96.00
2018-07-28T23:26:31.680Z,96.20
2018-07-28T23:29:02.398Z,96.70
2018-07-28T23:31:33.075Z,97.00
2018-07-28T23:34:03.656Z,97.10
2018-07-28T23:36:34.329Z,97.30
2018-07-28T23:39:06.550Z,97.40
2018-07-28T23:41:37.477Z,96.80
2018-07-28T23:44:08.229Z,97.40
2018-07-28T23:46:39.140Z,96.90
2018-07-28T23:49:09.750Z,96.40
2018-07-28T23:51:40.432Z,96.30
2018-07-28T23:54:11.141Z,96.50
2018-07-28T23:56:41.798Z,96.20
2018-07-28T23:59:12.803Z,96.00
